PWSweather.com
Personal Weather Stations
Station Observations
IROGLAN40
AalgaardNO 4330

AalgaardNO 4330

Lat: 58.773, Lon: 5.846

Elevation: 326

Station Type: Davis Vanatge Pro2

Latest ConditionsUpdated 2:00:01 PM GMT+01:01 Wednesday, Jul 30, 2014
Currently Today's Max Today's Min Today's Average
Temperature 63.6°F17.6°C 65.2°F18.4°C 57.3°F14.1°C 60.7°F15.9°C
Dew Point 57.3°F14.1°C 58.2°F14.6°C 54.9°F12.7°C 56.8°F13.8°C
Winds 3.6 mph SE5.8 kmh SE 5.3 mph NW8.5 kmh NW - 1.8 mph 2.9 kmh
Wind Gusts 5.0 mph8.0 kmh 10.0 mph16.1 kmh - -
Humidity 80% 94% 71% 87%
Pressure 29.72 in1006.4 mb 29.75 in1007.5 mb 29.71 in1006.1 mb -
Precipitation - 0.17 in4.3 mm - -
Hour Temp Dew Point Humidity Winds Wind Gusts Pressure Precip Precip Rate Daily Precip Total
02:00 PM 63.6°F17.6°C 57.3°F14.1°C 80% 3.6 mph SE5.8 kmh SE 5.0 mph8.0 kmh 29.72 in1006.4 mb 0.00 in0.0 mm 0.00 in/hr0.0 mm/hr 0.17 in4.3 mm
01:50 PM 63.2°F17.3°C 57.3°F14.1°C 81% 1.6 mph NNW2.6 kmh NNW 5.0 mph8.0 kmh 29.72 in1006.4 mb 0.00 in0.0 mm 0.00 in/hr0.0 mm/hr 0.17 in4.3 mm
01:40 PM 62.5°F16.9°C 56.5°F13.6°C 81% 1.1 mph SSE1.8 kmh SSE 1.0 mph1.6 kmh 29.73 in1006.8 mb 0.00 in0.0 mm 0.00 in/hr0.0 mm/hr 0.17 in4.3 mm
01:30 PM 62.0°F16.7°C 57.5°F14.2°C 85% 1.5 mph SSE2.4 kmh SSE 3.0 mph4.8 kmh 29.73 in1006.8 mb 0.00 in0.0 mm 0.00 in/hr0.0 mm/hr 0.17 in4.3 mm
01:20 PM 60.6°F15.9°C 55.4°F13.0°C 83% 1.5 mph NW2.4 kmh NW 4.0 mph6.4 kmh 29.73 in1006.8 mb 0.01 in0.3 mm 0.06 in/hr1.5 mm/hr 0.17 in4.3 mm
01:10 PM 61.7°F16.5°C 55.8°F13.2°C 81% 2.2 mph NW3.5 kmh NW 5.0 mph8.0 kmh 29.73 in1006.8 mb 0.00 in0.0 mm 0.00 in/hr0.0 mm/hr 0.16 in4.1 mm
01:00 PM 63.0°F17.2°C 56.1°F13.4°C 78% 4.1 mph NW6.6 kmh NW 5.0 mph8.0 kmh 29.73 in1006.8 mb 0.02 in0.5 mm 0.02 in/hr0.5 mm/hr 0.16 in4.1 mm
12:50 PM 64.4°F18.0°C 56.3°F13.5°C 75% 3.8 mph NW6.1 kmh NW 9.0 mph14.5 kmh 29.72 in1006.4 mb 0.00 in0.0 mm 0.00 in/hr0.0 mm/hr 0.14 in3.6 mm
12:40 PM 64.3°F17.9°C 55.8°F13.2°C 74% 3.4 mph SW5.5 kmh SW 7.0 mph11.3 kmh 29.72 in1006.4 mb 0.00 in0.0 mm 0.00 in/hr0.0 mm/hr 0.14 in3.6 mm
12:30 PM 64.1°F17.8°C 54.9°F12.7°C 72% 5.3 mph NW8.5 kmh NW 8.0 mph12.9 kmh 29.72 in1006.4 mb 0.00 in0.0 mm 0.00 in/hr0.0 mm/hr 0.14 in3.6 mm
12:20 PM 64.6°F18.1°C 55.0°F12.8°C 71% 5.0 mph WNW8.0 kmh WNW 7.0 mph11.3 kmh 29.72 in1006.4 mb 0.00 in0.0 mm 0.00 in/hr0.0 mm/hr 0.14 in3.6 mm
12:10 PM 65.2°F18.4°C 55.9°F13.3°C 72% 2.1 mph WSW3.4 kmh WSW 4.0 mph6.4 kmh 29.72 in1006.4 mb 0.00 in0.0 mm 0.00 in/hr0.0 mm/hr 0.14 in3.6 mm
12:00 PM 64.5°F18.1°C 54.9°F12.7°C 71% 3.4 mph NW5.5 kmh NW 8.0 mph12.9 kmh 29.72 in1006.4 mb 0.00 in0.0 mm 0.00 in/hr0.0 mm/hr 0.14 in3.6 mm
11:50 AM 65.2°F18.4°C 56.7°F13.7°C 74% 4.0 mph NW6.4 kmh NW 5.0 mph8.0 kmh 29.72 in1006.4 mb 0.00 in0.0 mm 0.00 in/hr0.0 mm/hr 0.14 in3.6 mm
11:40 AM 64.4°F18.0°C 56.6°F13.7°C 76% 3.2 mph NNW5.1 kmh NNW 6.0 mph9.7 kmh 29.71 in1006.1 mb 0.00 in0.0 mm 0.00 in/hr0.0 mm/hr 0.14 in3.6 mm
11:30 AM 63.8°F17.7°C 55.7°F13.2°C 75% 4.6 mph W7.4 kmh W 7.0 mph11.3 kmh 29.72 in1006.4 mb 0.00 in0.0 mm 0.00 in/hr0.0 mm/hr 0.14 in3.6 mm
11:20 AM 64.2°F17.9°C 56.5°F13.6°C 76% 4.1 mph NW6.6 kmh NW 10.0 mph16.1 kmh 29.71 in1006.1 mb 0.00 in0.0 mm 0.00 in/hr0.0 mm/hr 0.14 in3.6 mm
11:10 AM 64.4°F18.0°C 56.7°F13.7°C 76% 4.8 mph NW7.7 kmh NW 8.0 mph12.9 kmh 29.72 in1006.4 mb 0.00 in0.0 mm 0.00 in/hr0.0 mm/hr 0.14 in3.6 mm
11:00 AM 63.0°F17.2°C 56.4°F13.6°C 79% 3.5 mph WNW5.6 kmh WNW 7.0 mph11.3 kmh 29.72 in1006.4 mb 0.00 in0.0 mm 0.00 in/hr0.0 mm/hr 0.14 in3.6 mm
10:50 AM 63.1°F17.3°C 56.8°F13.8°C 80% 2.9 mph WNW4.7 kmh WNW 6.0 mph9.7 kmh 29.72 in1006.4 mb 0.00 in0.0 mm 0.00 in/hr0.0 mm/hr 0.14 in3.6 mm
10:40 AM 63.1°F17.3°C 56.8°F13.8°C 80% 2.5 mph NW4.0 kmh NW 3.0 mph4.8 kmh 29.72 in1006.4 mb 0.00 in0.0 mm 0.00 in/hr0.0 mm/hr 0.14 in3.6 mm
10:30 AM 63.4°F17.4°C 56.8°F13.8°C 79% 2.9 mph NW4.7 kmh NW 7.0 mph11.3 kmh 29.72 in1006.4 mb 0.00 in0.0 mm 0.00 in/hr0.0 mm/hr 0.14 in3.6 mm
10:20 AM 64.1°F17.8°C 57.8°F14.3°C 80% 1.7 mph NW2.7 kmh NW 4.0 mph6.4 kmh 29.72 in1006.4 mb 0.00 in0.0 mm 0.00 in/hr0.0 mm/hr 0.14 in3.6 mm
10:10 AM 63.2°F17.3°C 57.9°F14.4°C 83% 0.7 mph W1.1 kmh W 3.0 mph4.8 kmh 29.72 in1006.4 mb 0.00 in0.0 mm 0.00 in/hr0.0 mm/hr 0.14 in3.6 mm
10:00 AM 62.6°F17.0°C 57.7°F14.3°C 84% 1.6 mph WSW2.6 kmh WSW 2.0 mph3.2 kmh 29.72 in1006.4 mb 0.00 in0.0 mm 0.00 in/hr0.0 mm/hr 0.14 in3.6 mm
09:50 AM 62.0°F16.7°C 57.8°F14.3°C 86% 1.6 mph WSW2.6 kmh WSW 5.0 mph8.0 kmh 29.72 in1006.4 mb 0.00 in0.0 mm 0.00 in/hr0.0 mm/hr 0.14 in3.6 mm
09:40 AM 61.3°F16.3°C 57.4°F14.1°C 87% 2.3 mph NW3.7 kmh NW 3.0 mph4.8 kmh 29.72 in1006.4 mb 0.00 in0.0 mm 0.00 in/hr0.0 mm/hr 0.14 in3.6 mm
09:30 AM 60.8°F16.0°C 56.9°F13.8°C 87% 1.0 mph NNW1.6 kmh NNW 2.0 mph3.2 kmh 29.72 in1006.4 mb 0.00 in0.0 mm 0.00 in/hr0.0 mm/hr 0.14 in3.6 mm
09:20 AM 60.4°F15.8°C 56.5°F13.6°C 87% 1.0 mph W1.6 kmh W 3.0 mph4.8 kmh 29.72 in1006.4 mb 0.00 in0.0 mm 0.00 in/hr0.0 mm/hr 0.14 in3.6 mm
09:10 AM 60.0°F15.6°C 55.8°F13.2°C 86% 0.9 mph W1.4 kmh W 1.0 mph1.6 kmh 29.72 in1006.4 mb 0.00 in0.0 mm 0.00 in/hr0.0 mm/hr 0.14 in3.6 mm
09:00 AM 60.7°F15.9°C 56.5°F13.6°C 86% 1.2 mph W1.9 kmh W 2.0 mph3.2 kmh 29.72 in1006.4 mb 0.00 in0.0 mm 0.00 in/hr0.0 mm/hr 0.14 in3.6 mm
08:50 AM 61.3°F16.3°C 56.4°F13.6°C 84% 4.9 mph WSW7.9 kmh WSW 7.0 mph11.3 kmh 29.72 in1006.4 mb 0.00 in0.0 mm 0.00 in/hr0.0 mm/hr 0.14 in3.6 mm
08:40 AM 61.6°F16.4°C 57.4°F14.1°C 86% 1.8 mph W2.9 kmh W 3.0 mph4.8 kmh 29.71 in1006.1 mb 0.00 in0.0 mm 0.00 in/hr0.0 mm/hr 0.14 in3.6 mm
08:30 AM 61.4°F16.3°C 57.8°F14.3°C 88% 2.1 mph NW3.4 kmh NW 3.0 mph4.8 kmh 29.71 in1006.1 mb 0.00 in0.0 mm 0.00 in/hr0.0 mm/hr 0.14 in3.6 mm
08:20 AM 61.0°F16.1°C 57.8°F14.3°C 89% 2.2 mph NW3.5 kmh NW 3.0 mph4.8 kmh 29.71 in1006.1 mb 0.00 in0.0 mm 0.00 in/hr0.0 mm/hr 0.14 in3.6 mm
08:10 AM 60.6°F15.9°C 58.0°F14.4°C 91% 2.4 mph W3.9 kmh W 4.0 mph6.4 kmh 29.72 in1006.4 mb 0.00 in0.0 mm 0.00 in/hr0.0 mm/hr 0.14 in3.6 mm
08:00 AM 60.5°F15.8°C 58.2°F14.6°C 92% 2.0 mph WNW3.2 kmh WNW 4.0 mph6.4 kmh 29.71 in1006.1 mb 0.00 in0.0 mm 0.00 in/hr0.0 mm/hr 0.14 in3.6 mm
07:50 AM 60.1°F15.6°C 57.8°F14.3°C 92% 1.0 mph W1.6 kmh W 2.0 mph3.2 kmh 29.71 in1006.1 mb 0.00 in0.0 mm 0.00 in/hr0.0 mm/hr 0.14 in3.6 mm
07:40 AM 60.0°F15.6°C 58.2°F14.6°C 94% 1.2 mph W1.9 kmh W 3.0 mph4.8 kmh 29.71 in1006.1 mb 0.00 in0.0 mm 0.00 in/hr0.0 mm/hr 0.14 in3.6 mm
07:30 AM 59.0°F15.0°C 57.0°F13.9°C 93% 1.1 mph NW1.8 kmh NW 2.0 mph3.2 kmh 29.72 in1006.4 mb 0.00 in0.0 mm 0.00 in/hr0.0 mm/hr 0.14 in3.6 mm
07:20 AM 58.7°F14.8°C 56.7°F13.7°C 93% 1.7 mph NW2.7 kmh NW 2.0 mph3.2 kmh 29.71 in1006.1 mb 0.00 in0.0 mm 0.00 in/hr0.0 mm/hr 0.14 in3.6 mm
07:10 AM 58.4°F14.7°C 56.4°F13.6°C 93% 1.2 mph ENE1.9 kmh ENE 2.0 mph3.2 kmh 29.71 in1006.1 mb 0.00 in0.0 mm 0.00 in/hr0.0 mm/hr 0.14 in3.6 mm
07:00 AM 58.4°F14.7°C 56.4°F13.6°C 93% 1.3 mph ENE2.1 kmh ENE 2.0 mph3.2 kmh 29.71 in1006.1 mb 0.00 in0.0 mm 0.00 in/hr0.0 mm/hr 0.14 in3.6 mm
06:50 AM 58.7°F14.8°C 56.7°F13.7°C 93% 1.2 mph NE1.9 kmh NE 2.0 mph3.2 kmh 29.71 in1006.1 mb 0.00 in0.0 mm 0.00 in/hr0.0 mm/hr 0.14 in3.6 mm
06:40 AM 58.5°F14.7°C 56.5°F13.6°C 93% 0.7 mph NE1.1 kmh NE 1.0 mph1.6 kmh 29.71 in1006.1 mb 0.00 in0.0 mm 0.00 in/hr0.0 mm/hr 0.14 in3.6 mm
06:30 AM 58.2°F14.6°C 56.2°F13.4°C 93% 0.6 mph NE1.0 kmh NE 1.0 mph1.6 kmh 29.71 in1006.1 mb 0.00 in0.0 mm 0.00 in/hr0.0 mm/hr 0.14 in3.6 mm
06:20 AM 58.4°F14.7°C 56.4°F13.6°C 93% Calm Calm 1.0 mph1.6 kmh 29.71 in1006.1 mb 0.00 in0.0 mm 0.00 in/hr0.0 mm/hr 0.14 in3.6 mm
06:10 AM 58.5°F14.7°C 56.5°F13.6°C 93% 0.3 mph NE0.5 kmh NE 1.0 mph1.6 kmh 29.71 in1006.1 mb 0.00 in0.0 mm 0.00 in/hr0.0 mm/hr 0.14 in3.6 mm
06:00 AM 58.4°F14.7°C 56.4°F13.6°C 93% 1.2 mph NE1.9 kmh NE 2.0 mph3.2 kmh 29.71 in1006.1 mb 0.00 in0.0 mm 0.00 in/hr0.0 mm/hr 0.14 in3.6 mm
05:50 AM 58.2°F14.6°C 56.2°F13.4°C 93% 0.7 mph NW1.1 kmh NW 1.0 mph1.6 kmh 29.71 in1006.1 mb 0.00 in0.0 mm 0.00 in/hr0.0 mm/hr 0.14 in3.6 mm
05:40 AM 58.0°F14.4°C 56.0°F13.3°C 93% Calm Calm 1.0 mph1.6 kmh 29.71 in1006.1 mb 0.00 in0.0 mm 0.00 in/hr0.0 mm/hr 0.14 in3.6 mm
05:30 AM 57.6°F14.2°C 55.6°F13.1°C 93% 0.2 mph NW0.3 kmh NW 1.0 mph1.6 kmh 29.71 in1006.1 mb 0.00 in0.0 mm 0.00 in/hr0.0 mm/hr 0.14 in3.6 mm
05:20 AM 57.4°F14.1°C 55.4°F13.0°C 93% 0.5 mph NW0.8 kmh NW 1.0 mph1.6 kmh 29.71 in1006.1 mb 0.00 in0.0 mm 0.00 in/hr0.0 mm/hr 0.14 in3.6 mm
05:10 AM 57.3°F14.1°C 55.3°F12.9°C 93% 0.5 mph NW0.8 kmh NW 1.0 mph1.6 kmh 29.71 in1006.1 mb 0.00 in0.0 mm 0.00 in/hr0.0 mm/hr 0.14 in3.6 mm
05:00 AM 57.3°F14.1°C 55.3°F12.9°C 93% 0.8 mph NW1.3 kmh NW 1.0 mph1.6 kmh 29.71 in1006.1 mb 0.00 in0.0 mm 0.00 in/hr0.0 mm/hr 0.14 in3.6 mm
04:50 AM 57.3°F14.1°C 55.3°F12.9°C 93% 0.5 mph NW0.8 kmh NW 1.0 mph1.6 kmh 29.72 in1006.4 mb 0.00 in0.0 mm 0.00 in/hr0.0 mm/hr 0.14 in3.6 mm
04:40 AM 57.5°F14.2°C 55.2°F12.9°C 92% 0.9 mph NW1.4 kmh NW 2.0 mph3.2 kmh 29.72 in1006.4 mb 0.00 in0.0 mm 0.00 in/hr0.0 mm/hr 0.14 in3.6 mm
04:30 AM 57.7°F14.3°C 55.7°F13.2°C 93% 1.6 mph NW2.6 kmh NW 3.0 mph4.8 kmh 29.71 in1006.1 mb 0.00 in0.0 mm 0.00 in/hr0.0 mm/hr 0.14 in3.6 mm
04:20 AM 58.1°F14.5°C 55.8°F13.2°C 92% 1.8 mph NW2.9 kmh NW 4.0 mph6.4 kmh 29.71 in1006.1 mb 0.00 in0.0 mm 0.00 in/hr0.0 mm/hr 0.14 in3.6 mm
04:10 AM 58.4°F14.7°C 56.4°F13.6°C 93% 0.7 mph NW1.1 kmh NW 2.0 mph3.2 kmh 29.71 in1006.1 mb 0.00 in0.0 mm 0.00 in/hr0.0 mm/hr 0.14 in3.6 mm
04:00 AM 58.8°F14.9°C 56.4°F13.6°C 92% 1.3 mph NW2.1 kmh NW 2.0 mph3.2 kmh 29.71 in1006.1 mb 0.00 in0.0 mm 0.00 in/hr0.0 mm/hr 0.14 in3.6 mm
03:50 AM 59.1°F15.1°C 57.1°F13.9°C 93% 0.7 mph WNW1.1 kmh WNW 2.0 mph3.2 kmh 29.71 in1006.1 mb 0.00 in0.0 mm 0.00 in/hr0.0 mm/hr 0.14 in3.6 mm
03:40 AM 59.1°F15.1°C 57.1°F13.9°C 93% 0.7 mph NW1.1 kmh NW 1.0 mph1.6 kmh 29.71 in1006.1 mb 0.00 in0.0 mm 0.00 in/hr0.0 mm/hr 0.14 in3.6 mm
03:30 AM 59.2°F15.1°C 56.9°F13.8°C 92% 0.1 mph NNW0.2 kmh NNW 1.0 mph1.6 kmh 29.71 in1006.1 mb 0.00 in0.0 mm 0.00 in/hr0.0 mm/hr 0.14 in3.6 mm
03:20 AM 59.2°F15.1°C 56.9°F13.8°C 92% Calm Calm 1.0 mph1.6 kmh 29.71 in1006.1 mb 0.00 in0.0 mm 0.00 in/hr0.0 mm/hr 0.14 in3.6 mm
03:10 AM 59.3°F15.2°C 57.0°F13.9°C 92% 0.6 mph NNW1.0 kmh NNW 1.0 mph1.6 kmh 29.71 in1006.1 mb 0.00 in0.0 mm 0.00 in/hr0.0 mm/hr 0.14 in3.6 mm
03:00 AM 59.2°F15.1°C 56.9°F13.8°C 92% 0.7 mph NW1.1 kmh NW 2.0 mph3.2 kmh 29.72 in1006.4 mb 0.00 in0.0 mm 0.00 in/hr0.0 mm/hr 0.14 in3.6 mm
02:50 AM 59.4°F15.2°C 57.1°F13.9°C 92% 2.6 mph NW4.2 kmh NW 4.0 mph6.4 kmh 29.72 in1006.4 mb 0.00 in0.0 mm 0.00 in/hr0.0 mm/hr 0.14 in3.6 mm
02:40 AM 60.5°F15.8°C 58.2°F14.6°C 92% 3.4 mph WNW5.5 kmh WNW 5.0 mph8.0 kmh 29.72 in1006.4 mb 0.06 in1.5 mm 0.36 in/hr9.1 mm/hr 0.14 in3.6 mm
02:30 AM 60.3°F15.7°C 58.0°F14.4°C 92% Calm Calm -- 29.72 in1006.4 mb 0.00 in0.0 mm 0.00 in/hr0.0 mm/hr 0.09 in2.3 mm
02:20 AM 60.2°F15.7°C 57.9°F14.4°C 92% Calm Calm -- 29.72 in1006.4 mb 0.00 in0.0 mm 0.00 in/hr0.0 mm/hr 0.09 in2.3 mm
02:10 AM 60.2°F15.7°C 57.9°F14.4°C 92% 1.6 mph ESE2.6 kmh ESE 3.0 mph4.8 kmh 29.72 in1006.4 mb 0.03 in0.8 mm 0.18 in/hr4.6 mm/hr 0.09 in2.3 mm
02:00 AM 60.2°F15.7°C 57.9°F14.4°C 92% 0.7 mph ESE1.1 kmh ESE 1.0 mph1.6 kmh 29.72 in1006.4 mb 0.03 in0.8 mm 0.04 in/hr1.0 mm/hr 0.06 in1.5 mm
01:50 AM 60.2°F15.7°C 57.9°F14.4°C 92% 2.1 mph SE3.4 kmh SE 3.0 mph4.8 kmh 29.72 in1006.4 mb 0.01 in0.3 mm 0.06 in/hr1.5 mm/hr 0.03 in0.8 mm
01:40 AM 60.1°F15.6°C 57.8°F14.3°C 92% 1.3 mph ESE2.1 kmh ESE 3.0 mph4.8 kmh 29.73 in1006.8 mb 0.00 in0.0 mm 0.00 in/hr0.0 mm/hr 0.02 in0.5 mm
01:30 AM 60.0°F15.6°C 57.3°F14.1°C 91% 3.2 mph SE5.1 kmh SE 5.0 mph8.0 kmh 29.73 in1006.8 mb 0.00 in0.0 mm 0.00 in/hr0.0 mm/hr 0.02 in0.5 mm
01:20 AM 59.9°F15.5°C 57.3°F14.1°C 91% 2.7 mph SE4.3 kmh SE 5.0 mph8.0 kmh 29.73 in1006.8 mb 0.00 in0.0 mm 0.00 in/hr0.0 mm/hr 0.02 in0.5 mm
01:10 AM 59.9°F15.5°C 57.3°F14.1°C 91% 2.1 mph SE3.4 kmh SE 4.0 mph6.4 kmh 29.73 in1006.8 mb 0.00 in0.0 mm 0.00 in/hr0.0 mm/hr 0.02 in0.5 mm
01:00 AM 60.1°F15.6°C 57.5°F14.2°C 91% 2.7 mph ENE4.3 kmh ENE 4.0 mph6.4 kmh 29.73 in1006.8 mb 0.00 in0.0 mm 0.00 in/hr0.0 mm/hr 0.02 in0.5 mm
12:50 AM 60.4°F15.8°C 57.8°F14.3°C 91% 1.5 mph E2.4 kmh E 3.0 mph4.8 kmh 29.74 in1007.1 mb 0.00 in0.0 mm 0.00 in/hr0.0 mm/hr 0.02 in0.5 mm
12:40 AM 60.5°F15.8°C 57.9°F14.4°C 91% 1.7 mph E2.7 kmh E 3.0 mph4.8 kmh 29.74 in1007.1 mb 0.00 in0.0 mm 0.00 in/hr0.0 mm/hr 0.02 in0.5 mm
12:30 AM 60.5°F15.8°C 57.6°F14.2°C 90% 1.0 mph E1.6 kmh E 2.0 mph3.2 kmh 29.75 in1007.5 mb 0.00 in0.0 mm 0.00 in/hr0.0 mm/hr 0.02 in0.5 mm
12:20 AM 60.5°F15.8°C 57.6°F14.2°C 90% Calm Calm -- 29.75 in1007.5 mb 0.00 in0.0 mm 0.00 in/hr0.0 mm/hr 0.02 in0.5 mm
12:10 AM 60.6°F15.9°C 57.7°F14.3°C 90% 0.7 mph ENE1.1 kmh ENE 2.0 mph3.2 kmh 29.75 in1007.5 mb 0.00 in0.0 mm 0.00 in/hr0.0 mm/hr 0.02 in0.5 mm
12:00 AM 60.7°F15.9°C 57.7°F14.3°C 90% 1.4 mph ENE2.3 kmh ENE 2.0 mph3.2 kmh 29.75 in1007.5 mb 0.00 in0.0 mm 0.00 in/hr0.0 mm/hr 0.02 in0.5 mm